createdAt,value
2022-08-12T00:02:24.808Z,101925.94
2022-08-12T00:05:18.910Z,101930.64
2022-08-12T00:08:16.512Z,101928.08
2022-08-12T00:11:12.437Z,101930.63
2022-08-12T00:14:09.109Z,101924.80
2022-08-12T00:17:19.232Z,101924.55
2022-08-12T00:20:29.717Z,101930.67
2022-08-12T00:23:21.080Z,101921.52
2022-08-12T00:26:24.388Z,101923.93
2022-08-12T00:29:34.429Z,101930.66
2022-08-12T00:33:03.265Z,101934.05
2022-08-12T00:36:08.044Z,101934.92
2022-08-12T00:39:18.699Z,101937.51
2022-08-12T00:42:11.745Z,101933.02
2022-08-12T00:44:53.895Z,101936.23
2022-08-12T00:47:33.735Z,101936.09
2022-08-12T00:50:28.111Z,101934.71
2022-08-12T00:53:31.292Z,101931.90
2022-08-12T00:56:10.207Z,101929.42
2022-08-12T00:59:03.797Z,101927.44
2022-08-12T01:02:00.999Z,101921.80
2022-08-12T01:04:57.538Z,101917.39
2022-08-12T01:07:51.727Z,101914.21
2022-08-12T01:11:19.330Z,101912.58
2022-08-12T01:14:29.144Z,101910.61
2022-08-12T01:17:22.211Z,101911.16
2022-08-12T01:20:04.913Z,101911.81
2022-08-12T01:23:06.498Z,101914.18
2022-08-12T01:25:56.197Z,101912.90
2022-08-12T01:28:42.994Z,101910.64
2022-08-12T01:31:41.637Z,101906.38
2022-08-12T01:34:37.602Z,101902.54
2022-08-12T01:37:22.806Z,101898.59
2022-08-12T01:40:34.440Z,101901.63
2022-08-12T01:43:47.580Z,101905.08
2022-08-12T01:47:05.680Z,101906.15
2022-08-12T01:50:16.721Z,101899.67
2022-08-12T01:53:10.008Z,101892.61
2022-08-12T01:56:03.131Z,101896.13
2022-08-12T01:59:12.563Z,101901.36
2022-08-12T02:02:27.562Z,101901.45
2022-08-12T02:05:33.869Z,101900.31
2022-08-12T02:08:56.251Z,101905.19
2022-08-12T02:11:47.592Z,101905.63
2022-08-12T02:14:51.467Z,101901.58
2022-08-12T02:17:57.004Z,101899.39
2022-08-12T02:20:51.958Z,101901.04
2022-08-12T02:23:34.249Z,101897.88
2022-08-12T02:26:39.442Z,101896.23
2022-08-12T02:29:33.275Z,101897.60
2022-08-12T02:32:22.940Z,101901.06
2022-08-12T02:35:14.837Z,101897.14
2022-08-12T02:38:09.182Z,101896.20
2022-08-12T02:41:06.403Z,101893.84
2022-08-12T02:43:59.890Z,101890.36
2022-08-12T02:47:18.273Z,101890.23
2022-08-12T02:50:20.980Z,101891.70
2022-08-12T02:53:10.703Z,101888.97
2022-08-12T02:55:49.553Z,101884.02
2022-08-12T02:58:33.087Z,101883.55
2022-08-12T03:01:48.431Z,101883.20
2022-08-12T03:04:43.437Z,101882.06
2022-08-12T03:07:49.262Z,101884.83
2022-08-12T03:11:23.077Z,101885.27
2022-08-12T03:14:04.233Z,101878.07
2022-08-12T03:17:29.231Z,101876.75
2022-08-12T03:20:09.999Z,101878.52
2022-08-12T03:23:23.059Z,101875.07
2022-08-12T03:26:22.235Z,101870.41
2022-08-12T03:29:52.115Z,101866.09
2022-08-12T03:33:40.953Z,101860.83
2022-08-12T03:36:35.535Z,101856.81
2022-08-12T03:39:46.863Z,101857.53
2022-08-12T03:43:14.643Z,101857.98
2022-08-12T03:47:12.885Z,101856.67
2022-08-12T03:50:08.734Z,101853.88
2022-08-12T03:53:56.202Z,101852.91
2022-08-12T03:57:12.593Z,101848.76
2022-08-12T04:00:42.107Z,101846.79
2022-08-12T04:03:43.171Z,101849.86
2022-08-12T04:06:44.848Z,101845.81
2022-08-12T04:09:22.122Z,101845.22
2022-08-12T04:12:09.697Z,101843.78
2022-08-12T04:15:14.020Z,101841.36
2022-08-12T04:18:23.913Z,101841.54
2022-08-12T04:22:01.625Z,101842.18
2022-08-12T04:24:40.895Z,101842.13
2022-08-12T04:27:19.173Z,101840.54
2022-08-12T04:30:29.374Z,101840.55
2022-08-12T04:32:59.138Z,101837.52
2022-08-12T04:36:08.690Z,101838.19
2022-08-12T04:39:19.008Z,101841.00
2022-08-12T04:42:14.331Z,101834.26
2022-08-12T04:45:13.582Z,101836.49
2022-08-12T04:48:07.837Z,101836.69
2022-08-12T04:51:17.708Z,101833.58
2022-08-12T04:53:52.726Z,101833.20
2022-08-12T04:56:43.506Z,101834.27
2022-08-12T05:00:16.494Z,101829.57
2022-08-12T05:03:06.943Z,101830.96
2022-08-12T05:06:09.423Z,101831.20
2022-08-12T05:08:54.703Z,101832.03
2022-08-12T05:11:37.268Z,101830.72
2022-08-12T05:14:23.450Z,101831.05
2022-08-12T05:17:32.729Z,101831.34
2022-08-12T05:20:16.584Z,101832.05
2022-08-12T05:23:12.707Z,101832.55
2022-08-12T05:26:02.514Z,101833.67
2022-08-12T05:30:05.631Z,101835.36
2022-08-12T05:32:21.191Z,101835.29
2022-08-12T05:35:30.408Z,101835.38
2022-08-12T05:38:57.972Z,101843.13
2022-08-12T05:41:43.978Z,101842.09
2022-08-12T05:44:33.147Z,101839.16
2022-08-12T05:47:07.852Z,101844.61
2022-08-12T05:49:58.890Z,101843.53
2022-08-12T05:52:41.872Z,101846.98
2022-08-12T05:55:36.314Z,101841.16
2022-08-12T05:58:27.972Z,101838.80
2022-08-12T06:02:10.592Z,101838.68
2022-08-12T06:04:45.201Z,101839.52
2022-08-12T06:08:05.376Z,101839.09
2022-08-12T06:10:56.590Z,101836.52
2022-08-12T06:13:52.746Z,101836.39
2022-08-12T06:16:50.882Z,101834.21
2022-08-12T06:20:28.138Z,101835.65
2022-08-12T06:23:11.826Z,101833.06
2022-08-12T06:25:53.657Z,101832.05
2022-08-12T06:28:45.025Z,101835.30
2022-08-12T06:31:54.299Z,101832.73
2022-08-12T06:35:26.534Z,101834.26
2022-08-12T06:37:56.971Z,101833.01
2022-08-12T06:41:06.246Z,101834.92
2022-08-12T06:44:20.018Z,101830.73
2022-08-12T06:47:08.921Z,101830.38
2022-08-12T06:49:58.050Z,101829.53
2022-08-12T06:52:47.186Z,101830.99
2022-08-12T06:55:30.195Z,101825.79
2022-08-12T06:58:24.560Z,101828.58
2022-08-12T07:01:07.467Z,101824.61
2022-08-12T07:04:01.871Z,101823.08
2022-08-12T07:07:07.527Z,101817.70
2022-08-12T07:10:17.498Z,101818.83
2022-08-12T07:13:09.048Z,101817.41
2022-08-12T07:15:38.819Z,101818.16
2022-08-12T07:18:32.074Z,101819.13
2022-08-12T07:22:00.002Z,101822.77
2022-08-12T07:24:32.391Z,101827.04
2022-08-12T07:27:11.281Z,101825.23
2022-08-12T07:30:20.486Z,101825.86
2022-08-12T07:33:13.283Z,101831.44
2022-08-12T07:35:44.854Z,101828.38
2022-08-12T07:38:29.141Z,101825.55
2022-08-12T07:41:03.619Z,101825.59
2022-08-12T07:43:42.658Z,101824.30
2022-08-12T07:46:13.868Z,101827.55
2022-08-12T07:48:45.280Z,101822.48
2022-08-12T07:51:25.164Z,101818.47
2022-08-12T07:54:03.054Z,101818.52
2022-08-12T07:56:33.176Z,101813.42
2022-08-12T07:59:02.627Z,101813.99
2022-08-12T08:01:32.686Z,101812.23
2022-08-12T08:04:19.976Z,101809.60
2022-08-12T08:06:50.440Z,101806.98
2022-08-12T08:09:22.895Z,101804.31
2022-08-12T08:12:19.230Z,101799.76
2022-08-12T08:14:55.833Z,101795.83
2022-08-12T08:17:25.348Z,101798.02
2022-08-12T08:20:03.153Z,101794.39
2022-08-12T08:22:41.696Z,101797.52
2022-08-12T08:25:35.666Z,101796.86
2022-08-12T08:28:04.254Z,101791.92
2022-08-12T08:30:40.701Z,101791.80
2022-08-12T08:33:24.788Z,101796.14
2022-08-12T08:36:06.182Z,101796.36
2022-08-12T08:38:37.346Z,101792.58
2022-08-12T08:42:18.804Z,101788.48
2022-08-12T08:44:13.766Z,101786.38
2022-08-12T08:46:47.479Z,101786.77
2022-08-12T08:49:17.671Z,101785.55
2022-08-12T08:51:46.889Z,101786.16
2022-08-12T08:54:15.383Z,101781.52
2022-08-12T08:56:53.211Z,101781.75
2022-08-12T08:59:24.502Z,101780.53
2022-08-12T09:02:22.955Z,101774.96
2022-08-12T09:05:13.207Z,101775.38
2022-08-12T09:08:39.258Z,101771.79
2022-08-12T09:12:07.181Z,101773.11
2022-08-12T09:14:18.791Z,101772.44
2022-08-12T09:17:00.529Z,101769.29
2022-08-12T09:19:31.571Z,101769.43
2022-08-12T09:22:04.760Z,101767.97
2022-08-12T09:24:33.898Z,101764.80
2022-08-12T09:27:24.487Z,101763.55
2022-08-12T09:30:41.950Z,101754.21
2022-08-12T09:33:19.390Z,101755.67
2022-08-12T09:36:05.594Z,101755.36
2022-08-12T09:38:37.140Z,101751.24
2022-08-12T09:42:33.858Z,101753.19
2022-08-12T09:44:39.546Z,101752.42
2022-08-12T09:47:29.283Z,101749.84
2022-08-12T09:49:59.089Z,101747.77
2022-08-12T09:53:14.779Z,101750.89
2022-08-12T09:56:58.634Z,101751.20
2022-08-12T10:00:15.816Z,101744.63
2022-08-12T10:02:49.761Z,101742.66
2022-08-12T10:05:00.126Z,101743.60
2022-08-12T10:07:40.099Z,101742.77
2022-08-12T10:10:22.994Z,101740.17
2022-08-12T10:13:35.216Z,101740.10
2022-08-12T10:16:21.715Z,101739.11
2022-08-12T10:18:56.618Z,101737.23
2022-08-12T10:21:37.631Z,101730.02
2022-08-12T10:24:20.390Z,101733.89
2022-08-12T10:27:08.308Z,101728.98
2022-08-12T10:30:38.976Z,101724.65
2022-08-12T10:32:43.673Z,101718.48
2022-08-12T10:35:20.148Z,101720.49
2022-08-12T10:38:38.983Z,101719.77
2022-08-12T10:41:09.341Z,101719.57
2022-08-12T10:43:55.156Z,101716.55
2022-08-12T10:46:52.257Z,101712.10
2022-08-12T10:50:04.663Z,101711.34
2022-08-12T10:52:47.303Z,101710.94
2022-08-12T10:55:13.397Z,101712.48
2022-08-12T10:58:14.974Z,101711.42
2022-08-12T11:00:45.348Z,101708.40
2022-08-12T11:04:26.472Z,101708.71
2022-08-12T11:07:09.388Z,101704.11
2022-08-12T11:09:55.786Z,101701.71
2022-08-12T11:12:56.718Z,101701.49
2022-08-12T11:15:19.208Z,101699.59
2022-08-12T11:17:53.499Z,101699.06
2022-08-12T11:20:30.547Z,101697.70
2022-08-12T11:23:26.142Z,101697.67
2022-08-12T11:26:05.667Z,101691.09
2022-08-12T11:28:37.636Z,101687.27
2022-08-12T11:31:55.826Z,101683.98
2022-08-12T11:34:53.266Z,101682.33
2022-08-12T11:37:57.702Z,101677.95
2022-08-12T11:40:28.814Z,101679.23
2022-08-12T11:43:01.864Z,101678.70
2022-08-12T11:45:57.685Z,101678.55
2022-08-12T11:48:27.325Z,101682.14
2022-08-12T11:51:08.005Z,101679.73
2022-08-12T11:53:59.428Z,101678.69
2022-08-12T12:03:43.886Z,101673.67
2022-08-12T12:06:16.820Z,101672.88
2022-08-12T12:08:51.330Z,101669.91
2022-08-12T12:11:27.793Z,101667.65
2022-08-12T12:14:38.043Z,101667.24
2022-08-12T12:17:15.333Z,101664.58
2022-08-12T12:19:46.940Z,101654.83
2022-08-12T12:22:23.583Z,101653.89
2022-08-12T12:25:13.316Z,101654.64
2022-08-12T12:28:04.574Z,101651.60
2022-08-12T12:30:38.984Z,101651.71
2022-08-12T12:33:56.836Z,101650.03
2022-08-12T12:36:24.038Z,101641.27
2022-08-12T12:39:00.252Z,101647.11
2022-08-12T12:42:42.000Z,101645.98
2022-08-12T12:44:25.673Z,101642.46
2022-08-12T12:47:26.090Z,101640.02
2022-08-12T12:49:56.910Z,101640.40
2022-08-12T12:52:26.822Z,101635.34
2022-08-12T12:54:58.165Z,101633.23
2022-08-12T12:57:36.095Z,101628.20
2022-08-12T13:00:18.407Z,101629.38
2022-08-12T13:02:53.767Z,101631.31
2022-08-12T13:05:42.332Z,101630.17
2022-08-12T13:08:28.208Z,101631.81
2022-08-12T13:11:41.400Z,101632.63
2022-08-12T13:14:55.967Z,101629.17
2022-08-12T13:18:02.513Z,101624.13
2022-08-12T13:21:00.898Z,101617.70
2022-08-12T13:40:22.297Z,101615.81
2022-08-12T13:43:01.542Z,101617.01
2022-08-12T13:45:36.980Z,101614.02
2022-08-12T13:48:09.953Z,101610.42
2022-08-12T13:50:54.609Z,101607.05
2022-08-12T13:53:57.665Z,101605.94
2022-08-12T13:56:37.961Z,101605.48
2022-08-12T14:02:22.601Z,101602.63
2022-08-12T14:05:37.784Z,101603.88
2022-08-12T14:08:05.696Z,101599.48
2022-08-12T14:10:36.709Z,101598.48
2022-08-12T14:14:02.532Z,101592.13
2022-08-12T14:16:02.772Z,101591.59
2022-08-12T14:18:49.211Z,101588.88
2022-08-12T14:22:04.439Z,101589.13
2022-08-12T14:24:53.660Z,101588.17
2022-08-12T14:28:02.668Z,101584.84
2022-08-12T14:31:05.894Z,101582.34
2022-08-12T14:33:52.254Z,101587.23
2022-08-12T14:37:13.096Z,101584.16
2022-08-12T14:40:04.137Z,101579.02
2022-08-12T14:42:33.219Z,101580.51
2022-08-12T14:45:49.072Z,101579.82
2022-08-12T14:48:29.416Z,101572.96
2022-08-12T14:52:07.892Z,101573.84
2022-08-12T14:57:19.029Z,101568.84
2022-08-12T15:00:05.270Z,101571.20
2022-08-12T15:02:37.681Z,101564.73
2022-08-12T15:06:05.296Z,101567.84
2022-08-12T15:08:38.827Z,101566.59
2022-08-12T15:11:54.962Z,101564.54
2022-08-12T15:14:47.677Z,101560.63
2022-08-12T15:17:38.195Z,101554.48
2022-08-12T15:21:11.110Z,101553.23
2022-08-12T15:23:45.462Z,101550.58
2022-08-12T15:27:14.891Z,101552.00
2022-08-12T15:30:24.408Z,101547.09
2022-08-12T15:33:12.858Z,101547.27
2022-08-12T15:35:54.949Z,101540.72
2022-08-12T15:38:32.196Z,101536.98
2022-08-12T15:44:51.365Z,101531.35
2022-08-12T15:47:36.190Z,101527.52
2022-08-12T15:54:49.988Z,101529.17
2022-08-12T15:57:24.215Z,101528.80
2022-08-12T16:00:06.567Z,101527.06
2022-08-12T16:02:50.485Z,101523.52
2022-08-12T16:06:12.623Z,101525.65
2022-08-12T16:08:53.484Z,101524.68
2022-08-12T16:11:22.855Z,101526.16
2022-08-12T16:13:57.110Z,101525.33
2022-08-12T16:16:35.041Z,101524.50
2022-08-12T16:19:09.665Z,101516.06
2022-08-12T16:21:59.009Z,101520.17
2022-08-12T16:24:28.277Z,101518.37
2022-08-12T16:26:58.539Z,101517.05
2022-08-12T16:29:52.190Z,101515.13
2022-08-12T16:32:22.647Z,101515.71
2022-08-12T16:34:57.572Z,101519.02
2022-08-12T16:38:04.767Z,101517.05
2022-08-12T16:40:15.789Z,101520.27
2022-08-12T16:42:53.582Z,101520.06
2022-08-12T16:46:05.137Z,101518.89
2022-08-12T16:48:35.030Z,101516.38
2022-08-12T16:51:09.333Z,101513.21
2022-08-12T16:53:44.024Z,101513.89
2022-08-12T16:56:15.514Z,101507.87
2022-08-12T16:58:44.661Z,101511.80
2022-08-12T17:01:14.047Z,101507.27
2022-08-12T17:03:52.041Z,101511.45
2022-08-12T17:06:28.072Z,101508.95
2022-08-12T17:09:02.065Z,101505.96
2022-08-12T17:11:32.228Z,101505.23
2022-08-12T17:14:03.293Z,101498.55
2022-08-12T17:16:36.863Z,101501.15
2022-08-12T17:19:09.734Z,101500.24
2022-08-12T17:22:01.201Z,101500.09
2022-08-12T17:24:32.102Z,101498.84
2022-08-12T17:27:05.258Z,101499.98
2022-08-12T17:30:02.510Z,101499.86
2022-08-12T17:32:30.786Z,101500.11
2022-08-12T17:35:18.442Z,101496.55
2022-08-12T17:37:50.380Z,101494.46
2022-08-12T17:40:35.940Z,101491.21
2022-08-12T17:43:56.008Z,101494.34
2022-08-12T17:45:59.835Z,101492.53
2022-08-12T17:48:34.662Z,101492.81
2022-08-12T17:51:12.327Z,101490.79
2022-08-12T17:54:11.499Z,101495.65
2022-08-12T17:56:36.880Z,101495.35
2022-08-12T17:59:08.440Z,101494.65
2022-08-12T18:01:43.819Z,101495.74
2022-08-12T18:04:21.451Z,101490.61
2022-08-12T18:06:53.877Z,101488.16
2022-08-12T18:09:32.127Z,101485.55
2022-08-12T18:12:35.393Z,101487.44
2022-08-12T18:15:10.453Z,101483.96
2022-08-12T18:18:02.884Z,101483.17
2022-08-12T18:20:36.595Z,101482.73
2022-08-12T18:23:09.756Z,101477.40
2022-08-12T18:26:14.702Z,101479.75
2022-08-12T18:28:56.207Z,101482.11
2022-08-12T18:31:29.038Z,101478.62
2022-08-12T18:34:18.184Z,101479.17
2022-08-12T18:36:51.944Z,101480.51
2022-08-12T18:39:24.278Z,101484.15
2022-08-12T18:42:01.451Z,101475.92
2022-08-12T18:44:45.367Z,101471.86
2022-08-12T18:47:14.912Z,101474.25
2022-08-12T18:50:04.045Z,101478.44
2022-08-12T18:52:48.758Z,101475.73
2022-08-12T18:55:20.327Z,101472.29
2022-08-12T18:58:08.382Z,101471.42
2022-08-12T19:00:43.293Z,101478.18
2022-08-12T19:03:38.879Z,101480.84
2022-08-12T19:06:08.810Z,101484.54
2022-08-12T19:08:47.119Z,101487.16
2022-08-12T19:11:35.165Z,101487.09
2022-08-12T19:14:27.582Z,101485.66
2022-08-12T19:16:58.544Z,101486.34
2022-08-12T19:19:27.560Z,101491.60
2022-08-12T19:22:28.949Z,101490.73
2022-08-12T19:25:17.646Z,101495.98
2022-08-12T19:27:51.758Z,101497.20
2022-08-12T19:30:43.690Z,101493.77
2022-08-12T19:33:20.905Z,101499.92
2022-08-12T19:36:24.572Z,101501.69
2022-08-12T19:38:56.498Z,101503.17
2022-08-12T19:41:55.890Z,101505.80
2022-08-12T19:44:27.489Z,101504.34
2022-08-12T19:47:00.195Z,101503.24
2022-08-12T19:49:45.420Z,101501.40
2022-08-12T19:52:21.058Z,101502.34
2022-08-12T19:55:19.465Z,101505.20
2022-08-12T19:58:02.376Z,101506.98
2022-08-12T20:00:52.795Z,101508.42
2022-08-12T20:03:38.173Z,101510.18
2022-08-12T20:06:13.876Z,101513.89
2022-08-12T20:08:49.193Z,101514.06
2022-08-12T20:12:12.969Z,101520.26
2022-08-12T20:14:31.741Z,101517.70
2022-08-12T20:17:23.620Z,101518.03
2022-08-12T20:20:19.014Z,101516.92
2022-08-12T20:23:09.136Z,101516.69
2022-08-12T20:26:07.386Z,101515.39
2022-08-12T20:28:54.265Z,101517.48
2022-08-12T20:31:37.372Z,101516.03
2022-08-12T20:34:06.796Z,101515.55
2022-08-12T20:36:42.909Z,101512.30
2022-08-12T20:39:52.253Z,101514.97
2022-08-12T20:42:23.917Z,101517.00
2022-08-12T20:45:08.471Z,101518.80
2022-08-12T20:48:02.064Z,101520.08
2022-08-12T20:50:40.005Z,101520.02
2022-08-12T20:53:54.121Z,101522.34
2022-08-12T20:56:33.772Z,101522.52
2022-08-12T20:59:05.542Z,101525.52
2022-08-12T21:01:47.542Z,101526.67
2022-08-12T21:04:36.591Z,101526.77
2022-08-12T21:07:29.168Z,101526.27
2022-08-12T21:10:05.834Z,101527.36
2022-08-12T21:12:39.911Z,101531.60
2022-08-12T21:15:24.175Z,101529.71
2022-08-12T21:18:11.378Z,101527.36
2022-08-12T21:20:49.624Z,101532.27
2022-08-12T21:23:42.230Z,101533.54
2022-08-12T21:26:20.138Z,101527.45
2022-08-12T21:28:58.547Z,101530.48
2022-08-12T21:32:40.855Z,101529.60
2022-08-12T21:34:29.251Z,101530.45
2022-08-12T21:37:13.239Z,101527.01
2022-08-12T21:40:16.300Z,101523.44
2022-08-12T21:43:07.659Z,101521.10
2022-08-12T21:46:01.146Z,101516.81
2022-08-12T21:48:30.859Z,101510.70
2022-08-12T21:51:23.001Z,101514.05
2022-08-12T21:54:09.973Z,101511.99
2022-08-12T21:56:44.253Z,101510.56
2022-08-12T21:59:18.997Z,101511.27
2022-08-12T22:01:50.849Z,101510.05
2022-08-12T22:04:57.997Z,101511.55
2022-08-12T22:08:06.389Z,101508.06
2022-08-12T22:10:37.573Z,101512.79
2022-08-12T22:14:02.580Z,101511.45
2022-08-12T22:16:46.841Z,101508.39
2022-08-12T22:19:35.220Z,101503.73
2022-08-12T22:22:33.868Z,101503.69
2022-08-12T22:25:03.414Z,101502.13
2022-08-12T22:27:55.854Z,101504.23
2022-08-12T22:31:15.161Z,101501.41
2022-08-12T22:33:59.699Z,101501.39
2022-08-12T22:36:37.586Z,101497.88
2022-08-12T22:39:27.049Z,101498.08
2022-08-12T22:42:26.600Z,101501.80
2022-08-12T22:45:48.370Z,101503.42
2022-08-12T22:48:34.007Z,101501.88
2022-08-12T22:51:27.871Z,101504.71
2022-08-12T22:54:36.157Z,101500.98
2022-08-12T22:57:15.389Z,101500.16
2022-08-12T22:59:55.317Z,101499.52
2022-08-12T23:02:30.299Z,101498.38
2022-08-12T23:05:06.010Z,101495.23
2022-08-12T23:08:06.235Z,101495.77
2022-08-12T23:11:33.842Z,101496.05
2022-08-12T23:14:24.871Z,101492.49
2022-08-12T23:17:21.367Z,101493.39
2022-08-12T23:20:13.061Z,101491.61
2022-08-12T23:23:09.083Z,101487.61
2022-08-12T23:26:09.881Z,101487.79
2022-08-12T23:29:12.713Z,101484.67
2022-08-12T23:32:35.892Z,101484.16
2022-08-12T23:35:45.816Z,101488.92
2022-08-12T23:40:13.828Z,101486.52
2022-08-12T23:43:07.499Z,101480.39
2022-08-12T23:46:05.101Z,101483.84
2022-08-12T23:49:55.379Z,101479.42
2022-08-12T23:52:46.878Z,101477.31
2022-08-12T23:55:29.081Z,101477.77
2022-08-12T23:58:25.982Z,101479.00
